createdAt,value
2023-01-29T00:01:34.718Z,99760.72
2023-01-29T00:04:01.158Z,99763.44
2023-01-29T00:06:27.648Z,99771.25
2023-01-29T00:08:54.153Z,99775.78
2023-01-29T00:11:20.623Z,99775.41
2023-01-29T00:13:47.355Z,99778.69
2023-01-29T00:16:13.896Z,99774.94
2023-01-29T00:18:41.155Z,99778.41
2023-01-29T00:21:12.718Z,99777.28
2023-01-29T00:23:39.160Z,99774.56
2023-01-29T00:26:06.258Z,99780.88
2023-01-29T00:28:33.110Z,99774.66
2023-01-29T00:31:06.285Z,99761.47
2023-01-29T00:33:32.741Z,99758.78
2023-01-29T00:36:02.563Z,99763.97
2023-01-29T00:38:29.023Z,99758.69
2023-01-29T00:41:13.770Z,99756.88
2023-01-29T00:43:58.891Z,99762.09
2023-01-29T00:46:25.433Z,99756.88
2023-01-29T00:48:51.840Z,99756.28
2023-01-29T00:51:18.295Z,99753.41
2023-01-29T00:53:44.817Z,99749.06
2023-01-29T00:56:11.232Z,99744.41
2023-01-29T00:58:37.701Z,99748.03
2023-01-29T01:01:04.218Z,99735.78
2023-01-29T01:03:35.154Z,99735.34
2023-01-29T01:06:06.354Z,99733.13
2023-01-29T01:08:51.311Z,99726.63
2023-01-29T01:11:17.854Z,99731.94
2023-01-29T01:13:44.319Z,99718.50
2023-01-29T01:16:12.879Z,99721.03
2023-01-29T01:18:39.568Z,99720.91
2023-01-29T01:21:06.369Z,99722.00
2023-01-29T01:23:33.429Z,99715.81
2023-01-29T01:26:00.202Z,99710.78
2023-01-29T01:28:27.876Z,99702.25
2023-01-29T01:30:54.738Z,99704.53
2023-01-29T01:33:21.423Z,99698.25
2023-01-29T01:35:47.891Z,99692.31
2023-01-29T01:38:14.318Z,99699.47
2023-01-29T01:40:45.813Z,99687.28
2023-01-29T01:43:12.314Z,99692.31
2023-01-29T01:45:38.791Z,99694.91
2023-01-29T01:48:13.065Z,99687.91
2023-01-29T01:51:06.306Z,99692.31
2023-01-29T01:54:17.597Z,99685.50
2023-01-29T01:56:49.125Z,99698.00
2023-01-29T01:59:19.434Z,99688.75
2023-01-29T02:01:50.067Z,99687.00
2023-01-29T02:04:44.486Z,99682.84
2023-01-29T02:07:33.496Z,99687.84
2023-01-29T02:10:12.038Z,99690.28
2023-01-29T02:12:38.617Z,99692.88
2023-01-29T02:15:05.875Z,99700.06
2023-01-29T02:17:32.960Z,99709.91
2023-01-29T02:20:08.668Z,99706.38
2023-01-29T02:23:02.724Z,99717.03
2023-01-29T02:26:07.725Z,99727.41
2023-01-29T02:28:43.397Z,99727.41
2023-01-29T02:31:27.722Z,99729.69
2023-01-29T02:34:06.266Z,99732.88
2023-01-29T02:36:49.693Z,99738.00
2023-01-29T02:39:36.885Z,99734.34
2023-01-29T02:42:24.752Z,99736.44
2023-01-29T02:44:59.011Z,99731.09
2023-01-29T02:47:40.715Z,99723.31
2023-01-29T02:50:20.735Z,99728.66
2023-01-29T02:52:59.078Z,99723.41
2023-01-29T02:55:30.281Z,99714.94
2023-01-29T02:58:06.811Z,99710.47
2023-01-29T03:00:39.540Z,99700.66
2023-01-29T03:03:16.428Z,99701.78
2023-01-29T03:05:51.110Z,99710.88
2023-01-29T03:08:23.793Z,99707.47
2023-01-29T03:11:04.255Z,99713.47
2023-01-29T03:13:49.062Z,99703.69
2023-01-29T03:16:38.529Z,99713.22
2023-01-29T03:19:10.866Z,99706.63
2023-01-29T03:21:55.118Z,99712.53
2023-01-29T03:24:48.741Z,99714.41
2023-01-29T03:27:37.327Z,99706.50
2023-01-29T03:30:26.465Z,99704.50
2023-01-29T03:32:55.426Z,99700.41
2023-01-29T03:35:33.400Z,99694.91
2023-01-29T03:38:00.975Z,99685.47
2023-01-29T03:40:34.982Z,99691.94
2023-01-29T03:43:25.867Z,99694.56
2023-01-29T03:46:08.300Z,99706.91
2023-01-29T03:48:50.657Z,99717.69
2023-01-29T03:51:41.301Z,99714.38
2023-01-29T03:54:17.235Z,99718.75
2023-01-29T03:57:15.468Z,99718.97
2023-01-29T03:59:44.892Z,99729.72
2023-01-29T04:02:27.679Z,99708.94
2023-01-29T04:04:59.074Z,99704.47
2023-01-29T04:07:29.321Z,99700.13
2023-01-29T04:10:00.145Z,99695.03
2023-01-29T04:12:31.791Z,99695.13
2023-01-29T04:15:01.776Z,99696.38
2023-01-29T04:17:34.873Z,99693.03
2023-01-29T04:20:02.069Z,99704.19
2023-01-29T04:22:32.894Z,99703.31
2023-01-29T04:25:02.964Z,99712.25
2023-01-29T04:27:29.279Z,99718.06
2023-01-29T04:30:23.015Z,99722.59
2023-01-29T04:32:55.332Z,99728.50
2023-01-29T04:35:31.884Z,99723.91
2023-01-29T04:38:11.452Z,99724.59
2023-01-29T04:40:53.054Z,99716.53
2023-01-29T04:43:35.487Z,99718.88
2023-01-29T04:46:11.127Z,99718.88
2023-01-29T04:49:13.029Z,99728.78
2023-01-29T04:52:24.723Z,99717.88
2023-01-29T04:55:09.487Z,99716.94
2023-01-29T04:57:47.339Z,99706.09
2023-01-29T05:00:19.241Z,99709.56
2023-01-29T05:02:46.393Z,99704.50
2023-01-29T05:05:15.655Z,99686.91
2023-01-29T05:07:44.008Z,99677.31
2023-01-29T05:10:13.722Z,99673.84
2023-01-29T05:12:43.894Z,99679.84
2023-01-29T05:15:15.949Z,99670.50
2023-01-29T05:17:42.732Z,99671.63
2023-01-29T05:20:11.298Z,99674.31
2023-01-29T05:22:41.240Z,99674.31
2023-01-29T05:25:28.724Z,99686.03
2023-01-29T05:28:11.742Z,99690.50
2023-01-29T05:30:39.930Z,99684.06
2023-01-29T05:33:14.026Z,99678.06
2023-01-29T05:35:40.838Z,99680.13
2023-01-29T05:38:07.918Z,99679.69
2023-01-29T05:40:34.792Z,99685.25
2023-01-29T05:43:01.429Z,99699.22
2023-01-29T05:45:27.928Z,99703.38
2023-01-29T05:47:58.766Z,99709.78
2023-01-29T05:50:26.876Z,99710.47
2023-01-29T05:53:00.214Z,99706.66
2023-01-29T05:55:29.362Z,99710.97
2023-01-29T05:57:55.871Z,99714.53
2023-01-29T06:00:22.503Z,99708.25
2023-01-29T06:02:49.603Z,99699.81
2023-01-29T06:05:16.192Z,99697.25
2023-01-29T06:07:45.538Z,99689.66
2023-01-29T06:10:17.233Z,99684.28
2023-01-29T06:12:44.616Z,99675.72
2023-01-29T06:15:12.319Z,99666.97
2023-01-29T06:17:38.883Z,99662.50
2023-01-29T06:20:05.911Z,99669.84
2023-01-29T06:22:33.351Z,99662.88
2023-01-29T06:24:59.739Z,99665.59
2023-01-29T06:27:26.139Z,99655.22
2023-01-29T06:29:55.691Z,99653.44
2023-01-29T06:32:22.141Z,99657.13
2023-01-29T06:34:49.761Z,99663.13
2023-01-29T06:37:16.346Z,99663.97
2023-01-29T06:39:42.855Z,99664.34
2023-01-29T06:42:10.046Z,99669.91
2023-01-29T06:44:36.948Z,99671.56
2023-01-29T06:47:03.412Z,99685.19
2023-01-29T06:49:29.855Z,99684.59
2023-01-29T06:51:56.530Z,99685.59
2023-01-29T06:54:23.146Z,99684.94
2023-01-29T06:56:49.623Z,99690.13
2023-01-29T06:59:16.020Z,99687.94
2023-01-29T07:01:44.222Z,99691.72
2023-01-29T07:04:11.588Z,99689.31
2023-01-29T07:06:38.138Z,99705.94
2023-01-29T07:09:05.143Z,99709.50
2023-01-29T07:11:32.174Z,99716.88
2023-01-29T07:13:58.869Z,99719.09
2023-01-29T07:16:26.279Z,99721.69
2023-01-29T07:18:53.472Z,99718.78
2023-01-29T07:21:20.009Z,99705.44
2023-01-29T07:23:46.449Z,99691.97
2023-01-29T07:26:12.937Z,99691.31
2023-01-29T07:28:40.240Z,99692.88
2023-01-29T07:31:07.713Z,99686.75
2023-01-29T07:33:34.800Z,99687.66
2023-01-29T07:36:01.200Z,99678.78
2023-01-29T07:38:28.024Z,99681.34
2023-01-29T07:40:55.321Z,99681.94
2023-01-29T07:46:01.031Z,99694.16
2023-01-29T07:48:27.493Z,99707.97
2023-01-29T07:50:55.478Z,99698.91
2023-01-29T07:53:22.000Z,99713.81
2023-01-29T07:55:48.431Z,99699.50
2023-01-29T07:58:14.846Z,99702.38
2023-01-29T08:00:41.359Z,99712.63
2023-01-29T08:03:12.092Z,99716.50
2023-01-29T08:05:38.491Z,99735.22
2023-01-29T08:08:07.432Z,99729.91
2023-01-29T08:10:38.745Z,99726.44
2023-01-29T08:13:06.170Z,99715.84
2023-01-29T08:15:33.298Z,99702.78
2023-01-29T08:18:01.860Z,99698.69
2023-01-29T08:20:28.557Z,99697.13
2023-01-29T08:23:06.300Z,99693.50
2023-01-29T08:25:33.620Z,99694.59
2023-01-29T08:28:01.043Z,99702.38
2023-01-29T08:30:29.907Z,99696.00
2023-01-29T08:32:56.520Z,99706.16
2023-01-29T08:35:23.466Z,99704.91
2023-01-29T08:37:59.212Z,99704.13
2023-01-29T08:40:26.527Z,99709.03
2023-01-29T08:42:53.132Z,99716.06
2023-01-29T08:45:19.568Z,99717.13
2023-01-29T08:47:49.957Z,99721.81
2023-01-29T08:50:18.269Z,99723.47
2023-01-29T08:52:45.841Z,99714.03
2023-01-29T08:55:12.508Z,99708.41
2023-01-29T08:57:39.256Z,99713.88
2023-01-29T09:00:07.871Z,99705.72
2023-01-29T09:02:34.387Z,99712.22
2023-01-29T09:05:00.789Z,99727.72
2023-01-29T09:07:29.176Z,99740.44
2023-01-29T09:09:55.621Z,99733.56
2023-01-29T09:12:22.053Z,99733.66
2023-01-29T09:14:48.489Z,99734.47
2023-01-29T09:17:15.448Z,99742.88
2023-01-29T09:19:42.029Z,99741.88
2023-01-29T09:22:10.352Z,99745.59
2023-01-29T09:24:37.586Z,99756.69
2023-01-29T09:27:05.147Z,99769.28
2023-01-29T09:29:33.055Z,99764.25
2023-01-29T09:32:00.600Z,99754.78
2023-01-29T09:34:27.000Z,99741.53
2023-01-29T09:36:53.392Z,99740.34
2023-01-29T09:39:19.900Z,99751.69
2023-01-29T09:41:55.108Z,99752.41
2023-01-29T09:44:43.968Z,99748.06
2023-01-29T09:47:15.403Z,99757.19
2023-01-29T09:49:57.940Z,99756.69
2023-01-29T09:52:32.647Z,99752.41
2023-01-29T09:55:27.155Z,99743.06
2023-01-29T09:58:06.028Z,99730.97
2023-01-29T10:01:06.314Z,99717.81
2023-01-29T10:04:02.684Z,99720.31
2023-01-29T10:06:41.288Z,99713.44
2023-01-29T10:09:35.067Z,99699.28
2023-01-29T10:12:26.332Z,99693.53
2023-01-29T10:15:00.776Z,99692.16
2023-01-29T10:17:44.889Z,99680.75
2023-01-29T10:20:33.213Z,99681.25
2023-01-29T10:23:21.090Z,99668.66
2023-01-29T10:25:48.484Z,99670.16
2023-01-29T10:28:25.273Z,99671.75
2023-01-29T10:30:59.833Z,99670.38
2023-01-29T10:33:49.603Z,99666.38
2023-01-29T10:36:36.031Z,99666.38
2023-01-29T10:39:02.605Z,99654.19
2023-01-29T10:41:45.081Z,99650.31
2023-01-29T10:44:25.930Z,99653.00
2023-01-29T10:47:20.007Z,99643.69
2023-01-29T10:49:58.538Z,99633.78
2023-01-29T10:52:50.756Z,99623.88
2023-01-29T10:55:35.204Z,99623.28
2023-01-29T10:58:19.336Z,99606.00
2023-01-29T11:00:45.859Z,99605.13
2023-01-29T11:03:34.230Z,99623.25
2023-01-29T11:06:21.681Z,99624.00
2023-01-29T11:09:11.811Z,99611.59
2023-01-29T11:11:47.753Z,99600.91
2023-01-29T11:14:18.948Z,99605.06
2023-01-29T11:16:48.897Z,99609.75
2023-01-29T11:19:16.505Z,99613.91
2023-01-29T11:21:59.784Z,99611.91
2023-01-29T11:24:26.770Z,99602.50
2023-01-29T11:26:57.492Z,99585.44
2023-01-29T11:29:29.747Z,99582.41
2023-01-29T11:31:58.708Z,99583.88
2023-01-29T11:34:27.736Z,99572.03
2023-01-29T11:37:00.239Z,99577.13
2023-01-29T11:39:28.591Z,99565.41
2023-01-29T11:42:00.585Z,99557.38
2023-01-29T11:44:37.020Z,99554.66
2023-01-29T11:47:26.502Z,99547.25
2023-01-29T11:49:56.014Z,99557.91
2023-01-29T11:52:25.966Z,99556.53
2023-01-29T11:55:00.933Z,99547.00
2023-01-29T11:57:38.074Z,99549.31
2023-01-29T12:00:26.280Z,99546.03
2023-01-29T12:03:03.073Z,99532.34
2023-01-29T12:05:29.648Z,99524.84
2023-01-29T12:07:59.891Z,99526.22
2023-01-29T12:10:40.974Z,99514.78
2023-01-29T12:13:10.529Z,99516.03
2023-01-29T12:15:38.584Z,99504.88
2023-01-29T12:18:30.244Z,99500.69
2023-01-29T12:21:05.574Z,99494.06
2023-01-29T12:23:47.200Z,99493.16
2023-01-29T12:26:25.600Z,99484.88
2023-01-29T12:29:05.968Z,99480.72
2023-01-29T12:32:01.004Z,99471.94
2023-01-29T12:34:45.608Z,99468.91
2023-01-29T12:37:30.672Z,99459.41
2023-01-29T12:39:57.244Z,99452.16
2023-01-29T12:42:24.603Z,99452.91
2023-01-29T12:45:01.364Z,99453.03
2023-01-29T12:47:39.840Z,99450.69
2023-01-29T12:50:27.526Z,99450.38
2023-01-29T12:52:58.513Z,99439.19
2023-01-29T12:55:27.963Z,99440.50
2023-01-29T12:58:02.146Z,99438.59
2023-01-29T13:00:33.905Z,99432.31
2023-01-29T13:03:19.184Z,99432.88
2023-01-29T13:05:50.298Z,99421.59
2023-01-29T13:08:42.129Z,99418.41
2023-01-29T13:11:14.519Z,99418.19
2023-01-29T13:13:41.103Z,99415.09
2023-01-29T13:16:12.549Z,99422.84
2023-01-29T13:18:55.705Z,99401.09
2023-01-29T13:21:25.530Z,99408.13
2023-01-29T13:23:55.684Z,99410.50
2023-01-29T13:26:23.769Z,99414.66
2023-01-29T13:28:51.822Z,99413.16
2023-01-29T13:31:31.539Z,99409.25
2023-01-29T13:34:12.688Z,99409.47
2023-01-29T13:36:44.095Z,99399.22
2023-01-29T13:39:27.303Z,99406.28
2023-01-29T13:41:55.814Z,99409.00
2023-01-29T13:44:35.817Z,99405.41
2023-01-29T13:47:11.766Z,99400.66
2023-01-29T13:49:42.238Z,99404.09
2023-01-29T13:52:16.604Z,99400.34
2023-01-29T13:54:54.776Z,99397.66
2023-01-29T13:57:41.511Z,99397.28
2023-01-29T14:00:25.020Z,99394.94
2023-01-29T14:02:54.277Z,99394.53
2023-01-29T14:05:29.585Z,99385.00
2023-01-29T14:08:03.433Z,99379.66
2023-01-29T14:10:32.684Z,99374.81
2023-01-29T14:13:04.959Z,99379.31
2023-01-29T14:15:36.391Z,99365.34
2023-01-29T14:18:04.256Z,99367.75
2023-01-29T14:20:46.084Z,99361.72
2023-01-29T14:23:22.244Z,99356.63
2023-01-29T14:25:49.147Z,99357.59
2023-01-29T14:28:22.953Z,99354.22
2023-01-29T14:30:51.107Z,99361.47
2023-01-29T14:33:33.357Z,99362.06
2023-01-29T14:36:05.162Z,99358.88
2023-01-29T14:38:32.813Z,99360.09
2023-01-29T14:41:18.171Z,99356.31
2023-01-29T14:43:44.603Z,99361.06
2023-01-29T14:46:44.771Z,99344.78
2023-01-29T14:49:11.413Z,99353.22
2023-01-29T14:51:41.820Z,99357.47
2023-01-29T14:54:22.653Z,99349.66
2023-01-29T14:57:02.357Z,99356.94
2023-01-29T15:00:05.315Z,99351.97
2023-01-29T15:02:43.872Z,99346.34
2023-01-29T15:05:37.074Z,99346.91
2023-01-29T15:08:13.572Z,99349.75
2023-01-29T15:10:46.001Z,99336.06
2023-01-29T15:13:27.819Z,99348.66
2023-01-29T15:16:02.605Z,99346.31
2023-01-29T15:18:35.044Z,99330.47
2023-01-29T15:21:13.463Z,99323.66
2023-01-29T15:23:44.178Z,99320.09
2023-01-29T15:26:19.791Z,99312.16
2023-01-29T15:29:02.197Z,99307.13
2023-01-29T15:31:30.556Z,99310.19
2023-01-29T15:33:57.261Z,99309.66
2023-01-29T15:36:29.879Z,99294.81
2023-01-29T15:39:11.620Z,99291.81
2023-01-29T15:41:38.363Z,99290.41
2023-01-29T15:44:14.149Z,99290.00
2023-01-29T15:46:43.159Z,99285.19
2023-01-29T15:49:17.351Z,99283.84
2023-01-29T15:51:44.147Z,99284.59
2023-01-29T15:54:15.895Z,99285.53
2023-01-29T15:56:51.862Z,99291.66
2023-01-29T15:59:22.657Z,99305.00
2023-01-29T16:01:49.192Z,99297.88
2023-01-29T16:04:24.133Z,99308.34
2023-01-29T16:06:54.236Z,99315.09
2023-01-29T16:09:23.651Z,99315.09
2023-01-29T16:11:51.605Z,99320.22
2023-01-29T16:14:22.169Z,99325.50
2023-01-29T16:16:49.167Z,99341.03
2023-01-29T16:19:26.981Z,99340.19
2023-01-29T16:21:59.900Z,99346.16
2023-01-29T16:24:27.474Z,99345.50
2023-01-29T16:27:00.498Z,99349.13
2023-01-29T16:29:35.982Z,99343.00
2023-01-29T16:32:03.389Z,99346.97
2023-01-29T16:34:37.831Z,99352.56
2023-01-29T16:37:07.772Z,99355.47
2023-01-29T16:39:43.847Z,99352.16
2023-01-29T16:42:17.017Z,99362.31
2023-01-29T16:45:23.185Z,99350.97
2023-01-29T16:48:00.687Z,99358.00
2023-01-29T16:50:36.051Z,99355.66
2023-01-29T16:53:12.162Z,99360.34
2023-01-29T16:55:49.344Z,99358.59
2023-01-29T16:58:27.795Z,99360.88
2023-01-29T17:01:08.981Z,99366.69
2023-01-29T17:03:37.046Z,99364.06
2023-01-29T17:06:24.948Z,99361.63
2023-01-29T17:08:52.235Z,99365.81
2023-01-29T17:11:31.925Z,99365.19
2023-01-29T17:13:59.186Z,99365.66
2023-01-29T17:16:31.582Z,99369.34
2023-01-29T17:18:59.332Z,99369.50
2023-01-29T17:21:26.685Z,99378.50
2023-01-29T17:23:53.518Z,99372.69
2023-01-29T17:26:21.204Z,99381.72
2023-01-29T17:28:50.253Z,99382.00
2023-01-29T17:31:16.833Z,99377.09
2023-01-29T17:33:43.680Z,99378.38
2023-01-29T17:36:13.637Z,99382.88
2023-01-29T17:38:41.313Z,99380.53
2023-01-29T17:41:22.253Z,99372.78
2023-01-29T17:43:48.674Z,99375.13
2023-01-29T17:46:17.139Z,99373.75
2023-01-29T17:48:44.684Z,99369.53
2023-01-29T17:51:17.203Z,99358.31
2023-01-29T17:53:46.259Z,99356.56
2023-01-29T17:56:17.569Z,99352.16
2023-01-29T17:58:44.375Z,99356.56
2023-01-29T18:01:10.897Z,99349.34
2023-01-29T18:03:37.446Z,99347.41
2023-01-29T18:06:07.669Z,99340.09
2023-01-29T18:08:36.913Z,99330.44
2023-01-29T18:11:03.429Z,99334.16
2023-01-29T18:13:30.130Z,99336.97
2023-01-29T18:15:56.619Z,99336.56
2023-01-29T18:18:24.540Z,99338.66
2023-01-29T18:20:50.981Z,99329.19
2023-01-29T18:23:17.559Z,99333.41
2023-01-29T18:25:44.740Z,99330.28
2023-01-29T18:28:17.655Z,99329.56
2023-01-29T18:30:47.192Z,99327.66
2023-01-29T18:33:15.164Z,99315.88
2023-01-29T18:35:44.116Z,99326.56
2023-01-29T18:38:10.626Z,99319.72
2023-01-29T18:40:37.335Z,99315.56
2023-01-29T18:43:04.227Z,99313.63
2023-01-29T18:45:31.043Z,99307.41
2023-01-29T18:47:57.683Z,99301.72
2023-01-29T18:50:26.327Z,99292.41
2023-01-29T18:52:54.146Z,99294.16
2023-01-29T18:55:21.103Z,99283.22
2023-01-29T18:58:26.285Z,99285.16
2023-01-29T19:00:34.909Z,99287.69
2023-01-29T19:03:01.467Z,99285.03
2023-01-29T19:05:28.016Z,99293.09
2023-01-29T19:07:54.450Z,99285.69
2023-01-29T19:10:20.936Z,99282.13
2023-01-29T19:12:47.763Z,99279.66
2023-01-29T19:15:14.272Z,99278.38
2023-01-29T19:17:40.755Z,99282.47
2023-01-29T19:20:09.497Z,99276.72
2023-01-29T19:22:36.235Z,99271.66
2023-01-29T19:25:02.845Z,99279.59
2023-01-29T19:27:30.415Z,99276.81
2023-01-29T19:29:58.219Z,99275.75
2023-01-29T19:32:24.877Z,99276.47
2023-01-29T19:34:51.521Z,99278.69
2023-01-29T19:37:18.137Z,99268.81
2023-01-29T19:39:44.623Z,99267.78
2023-01-29T19:42:11.135Z,99268.19
2023-01-29T19:44:38.963Z,99271.88
2023-01-29T19:47:05.802Z,99271.84
2023-01-29T19:49:34.051Z,99279.81
2023-01-29T19:52:01.436Z,99284.25
2023-01-29T19:54:28.061Z,99283.41
2023-01-29T19:56:54.712Z,99272.66
2023-01-29T19:59:21.714Z,99266.44
2023-01-29T20:01:48.539Z,99263.06
2023-01-29T20:04:15.031Z,99259.34
2023-01-29T20:06:41.443Z,99249.63
2023-01-29T20:09:08.626Z,99253.50
2023-01-29T20:11:35.083Z,99254.06
2023-01-29T20:14:01.598Z,99251.06
2023-01-29T20:16:28.255Z,99240.91
2023-01-29T20:18:54.745Z,99238.06
2023-01-29T20:21:41.827Z,99235.75
2023-01-29T20:24:12.475Z,99231.97
2023-01-29T20:26:39.124Z,99234.59
2023-01-29T20:29:06.490Z,99230.06
2023-01-29T20:31:33.429Z,99217.88
2023-01-29T20:34:00.119Z,99213.16
2023-01-29T20:36:26.654Z,99206.81
2023-01-29T20:38:53.319Z,99211.91
2023-01-29T20:41:20.084Z,99208.56
2023-01-29T20:43:47.361Z,99209.00
2023-01-29T20:46:14.276Z,99194.03
2023-01-29T20:48:41.897Z,99197.97
2023-01-29T20:51:13.638Z,99201.16
2023-01-29T20:53:41.153Z,99208.47
2023-01-29T20:56:08.110Z,99201.44
2023-01-29T20:58:35.247Z,99191.88
2023-01-29T21:01:04.470Z,99189.84
2023-01-29T21:03:30.997Z,99179.72
2023-01-29T21:05:59.040Z,99169.31
2023-01-29T21:08:25.505Z,99167.94
2023-01-29T21:10:53.097Z,99170.53
2023-01-29T21:13:19.645Z,99167.34
2023-01-29T21:15:46.691Z,99158.97
2023-01-29T21:18:13.134Z,99154.84
2023-01-29T21:20:39.779Z,99141.94
2023-01-29T21:23:07.328Z,99145.38
2023-01-29T21:25:34.087Z,99132.28
2023-01-29T21:28:04.247Z,99129.13
2023-01-29T21:30:31.047Z,99121.47
2023-01-29T21:32:57.504Z,99112.47
2023-01-29T21:35:23.954Z,99093.97
2023-01-29T21:37:50.379Z,99096.19
2023-01-29T21:40:17.500Z,99093.97
2023-01-29T21:43:03.071Z,99072.41
2023-01-29T21:45:29.531Z,99067.09
2023-01-29T21:47:55.999Z,99060.03
2023-01-29T21:50:22.529Z,99058.25
2023-01-29T21:52:49.114Z,99062.34
2023-01-29T21:55:15.881Z,99065.66
2023-01-29T21:57:43.074Z,99061.16
2023-01-29T22:00:12.397Z,99064.78
2023-01-29T22:02:39.528Z,99060.75
2023-01-29T22:05:18.697Z,99066.72
2023-01-29T22:07:45.765Z,99054.09
2023-01-29T22:10:12.480Z,99046.13
2023-01-29T22:12:39.858Z,99037.94
2023-01-29T22:15:07.760Z,99048.47
2023-01-29T22:17:35.235Z,99046.56
2023-01-29T22:20:02.176Z,99052.38
2023-01-29T22:22:28.542Z,99057.13
2023-01-29T22:24:56.481Z,99044.69
2023-01-29T22:27:22.903Z,99035.34
2023-01-29T22:29:49.350Z,99036.84
2023-01-29T22:32:16.378Z,99029.72
2023-01-29T22:34:43.077Z,99029.25
2023-01-29T22:37:09.534Z,99008.97
2023-01-29T22:39:36.010Z,99012.06
2023-01-29T22:42:02.535Z,99008.41
2023-01-29T22:44:28.969Z,99004.16
2023-01-29T22:46:55.460Z,98991.69
2023-01-29T22:49:23.105Z,98988.66
2023-01-29T22:52:09.464Z,98999.78
2023-01-29T22:54:40.905Z,98975.69
2023-01-29T22:57:10.151Z,98970.72
2023-01-29T22:59:36.707Z,98972.00
2023-01-29T23:02:03.469Z,98960.38
2023-01-29T23:04:30.075Z,98966.00
2023-01-29T23:06:56.657Z,98964.31
2023-01-29T23:09:23.586Z,98966.16
2023-01-29T23:11:50.275Z,98981.59
2023-01-29T23:14:16.731Z,98985.16
2023-01-29T23:16:43.334Z,98967.84
2023-01-29T23:19:11.300Z,98980.25
2023-01-29T23:21:38.363Z,98978.84
2023-01-29T23:24:05.897Z,98983.25
2023-01-29T23:26:50.802Z,98984.09
2023-01-29T23:29:17.311Z,98989.03
2023-01-29T23:31:43.817Z,98991.66
2023-01-29T23:34:10.327Z,98990.81
2023-01-29T23:36:36.800Z,98990.28
2023-01-29T23:39:03.856Z,98984.75
2023-01-29T23:41:30.409Z,98971.91
2023-01-29T23:43:56.839Z,98962.78
2023-01-29T23:46:23.516Z,98963.63
2023-01-29T23:48:49.996Z,98967.53
2023-01-29T23:51:16.457Z,98954.81
2023-01-29T23:53:43.101Z,98943.22
2023-01-29T23:56:10.424Z,98930.97
2023-01-29T23:58:36.909Z,98960.31
